NCAR-RAP Real-Time Weather Data

Output produced by METARs form (17 October 2018  16:37 UTC)
found at http://weather.rap.ucar.edu/surface/
 
RJFS 171600Z 31002KT CAVOK 12/10 Q1014
RJFS 171200Z 32003KT 290V360 CAVOK 14/12 Q1014
RJFS 171100Z 33006KT CAVOK 15/13 Q1014
RJFS 171000Z 33006KT 9999 FEW035 BKN/// 16/13 Q1013
RJFS 170900Z 34005KT 9999 FEW035 BKN/// 17/13 Q1013
RJFS 170800Z 01007KT 9999 FEW035 BKN/// 20/12 Q1012
RJFS 170700Z 01008KT 350V060 9999 FEW035 BKN/// 22/12 Q1012
RJFS 170600Z 01008KT 330V030 9999 FEW035 BKN/// 22/11 Q1012
RJFS 170500Z 01010KT 9999 FEW035 BKN/// 23/11 Q1011
RJFS 170400Z 36009KT 320V030 9999 FEW035 BKN/// 23/11 Q1012
RJFS 170300Z 01007KT 330V050 9999 FEW030 SCT040 BKN/// 23/11 Q1012
RJFS 170200Z 15003KT 060V210 9999 FEW035 BKN/// 21/14 Q1013
RJFS 170100Z 32004KT 260V350 9999 FEW035 BKN/// 21/13 Q1013
RJFS 170000Z 01003KT 340V050 9999 FEW035 BKN/// 19/13 Q1013
RJFS 162300Z 33004KT 9999 FEW030 SCT080 BKN/// 16/14 Q1013
RJFS 162200Z 00000KT 9999 FEW030 SCT060 BKN070 16/13 Q1013
RJFS 162100Z 02005KT 9999 FEW030 BKN060 15/13 Q1013
RJFS 161900Z 35005KT 9999 FEW030 BKN080 14/12 Q1012
RJFS 161800Z 29005KT 9999 FEW030 SCT080 BKN100 16/14 Q1012
RJFS 161700Z 30003KT 9999 FEW030 BKN090 16/14 Q1012
RJFS 161600Z VRB02KT 9999 FEW030 BKN090 16/13 Q1012
RJFS 161200Z 05002KT 9999 FEW030 BKN100 18/13 Q1012
RJFS 161100Z 32004KT 9999 -RA FEW035 SCT050 BKN100 18/14 Q1012
RJFS 161000Z 36005KT 9999 FEW035 BKN100 18/14 Q1011
RJFS 160900Z 35009KT 9999 FEW035 BKN120 19/13 Q1011
RJFS 160800Z 35008KT 9999 FEW030 BKN120 20/13 Q1011
RJFS 160700Z 35008KT 9999 FEW035 BKN130 21/12 Q1011
RJFS 160600Z 28007KT 9999 FEW035 SCT130 BKN180 23/13 Q1010
RJFS 160500Z 27008KT 9999 FEW035 SCT130 BKN180 22/13 Q1011
RJFS 160400Z VRB02KT 9999 FEW035 SCT140 BKN180 22/11 Q1011
RJFS 160300Z 01005KT 320V080 9999 FEW030 BKN140 23/11 Q1012
RJFS 160200Z 02007KT 330V060 9999 FEW030 SCT140 22/13 Q1013
RJFS 160100Z 35005KT 300V040 9999 FEW030 BKN160 19/14 Q1014
RJFS 160000Z 01003KT 9999 FEW020 SCT120 BKN180 16/13 Q1015
RJFS 152300Z 34004KT 9999 FEW030 SCT170 BKN/// 14/13 Q1015
RJFS 152200Z 01003KT 9999 FEW050 BKN/// 13/12 Q1014
RJFS 152100Z 32005KT 9999 FEW050 SCT180 BKN/// 13/12 Q1015
RJFS 151900Z 34005KT 9999 FEW050 SCT130 BKN/// 13/12 Q1015
RJFS 151800Z 35004KT 9999 FEW050 BKN130 BKN/// 13/12 Q1015
RJFS 151700Z 36003KT 9999 FEW050 SCT130 BKN/// 13/12 Q1016
RJFS 151600Z 01003KT CAVOK 13/11 Q1016
RJFS 151200Z 33004KT CAVOK 15/12 Q1017
RJFS 151100Z 30005KT 280V340 CAVOK 14/12 Q1017
RJFS 151000Z 34006KT CAVOK 16/12 Q1016
RJFS 150900Z 33005KT CAVOK 17/11 Q1016
RJFS 150800Z 02007KT 9999 FEW040 BKN/// 22/11 Q1016
RJFS 150700Z 21004KT 180V250 9999 FEW040 BKN/// 23/15 Q1015
RJFS 150600Z 23005KT 9999 FEW040 BKN/// 23/13 Q1015
RJFS 150500Z 22007KT 9999 FEW040 BKN/// 23/15 Q1016